Time;durP1;ratioP1;P1;durP2;ratioP2;P2;SDS_P1;SDS_P2;PMS_P1;PMS_P2;Temp;Humidity;BMP_temperature;BMP_pressure;BME280_temperature;BME280_humidity;BME280_pressure;Samples;Min_cycle;Max_cycle;Signal;HPM_P1;HPM_P2
2022/04/16 00:00:07;;;;;;;1999.90;999.90;;;7.00;99.90;;;;;;5089261;28;20927;-66
2022/04/16 00:02:33;;;;;;;1999.90;999.90;;;6.90;99.90;;;;;;5072817;28;20457;-66
2022/04/16 00:05:00;;;;;;;1999.90;999.90;;;6.90;99.90;;;;;;5074317;28;20449;-66
2022/04/16 00:07:28;;;;;;;1999.90;999.90;;;6.90;99.90;;;;;;5073078;28;20445;-66
2022/04/16 00:09:54;;;;;;;1999.90;999.90;;;7.00;99.90;;;;;;5086195;28;20502;-66
2022/04/16 00:12:21;;;;;;;1999.90;999.90;;;6.90;99.90;;;;;;5072185;28;21025;-66
2022/04/16 00:14:49;;;;;;;1999.90;999.90;;;6.90;99.90;;;;;;5083169;28;20478;-66
2022/04/16 00:17:16;;;;;;;1999.90;999.90;;;6.90;99.90;;;;;;5073214;28;20460;-66
2022/04/16 00:19:43;;;;;;;1999.90;999.90;;;7.00;99.90;;;;;;5087949;28;20539;-66
2022/04/16 00:22:12;;;;;;;1999.90;999.90;;;7.10;99.90;;;;;;5080041;28;20465;-66
2022/04/16 00:24:40;;;;;;;1999.90;999.90;;;7.10;99.90;;;;;;5073698;28;20450;-65
2022/04/16 00:27:08;;;;;;;1999.90;999.90;;;7.00;99.90;;;;;;5072615;28;20939;-66
2022/04/16 00:29:36;;;;;;;1999.90;999.90;;;7.00;99.90;;;;;;5075776;28;20515;-66
2022/04/16 00:32:04;;;;;;;1999.90;999.90;;;6.90;99.90;;;;;;5068849;28;20527;-66
2022/04/16 00:34:31;;;;;;;1999.90;999.90;;;6.90;99.90;;;;;;5073777;28;20983;-66
2022/04/16 00:36:58;;;;;;;1999.90;999.90;;;6.90;99.90;;;;;;5095215;28;20446;-67
2022/04/16 00:39:25;;;;;;;1999.90;999.90;;;6.90;99.90;;;;;;5082923;28;20475;-66
2022/04/16 00:41:53;;;;;;;1999.90;999.90;;;6.80;99.90;;;;;;5102078;28;20509;-66
2022/04/16 00:44:20;;;;;;;1999.90;999.90;;;6.80;99.90;;;;;;5101629;28;20448;-65
2022/04/16 00:46:47;;;;;;;1999.90;999.90;;;6.80;99.90;;;;;;5097230;28;20441;-67
2022/04/16 00:49:14;;;;;;;1999.90;999.90;;;6.70;99.90;;;;;;5089757;28;20518;-67
2022/04/16 00:51:42;;;;;;;1999.90;999.90;;;6.70;99.90;;;;;;5079592;28;20473;-67
2022/04/16 00:54:08;;;;;;;1999.90;999.90;;;6.70;99.90;;;;;;5072857;28;20445;-66
2022/04/16 00:56:36;;;;;;;1999.90;999.90;;;6.60;99.90;;;;;;5073028;28;20485;-64
2022/04/16 00:59:04;;;;;;;1999.90;999.90;;;6.60;99.90;;;;;;5073574;28;20516;-67
2022/04/16 01:01:31;;;;;;;1999.90;999.90;;;6.60;99.90;;;;;;5073720;28;20470;-66
2022/04/16 01:03:59;;;;;;;1999.90;999.90;;;6.60;99.90;;;;;;5072458;28;20454;-67
2022/04/16 01:06:36;;;;;;;1999.90;999.90;;;6.60;99.90;;;;;;5073238;28;20450;-67
2022/04/16 01:09:02;;;;;;;1999.90;999.90;;;6.60;99.90;;;;;;5072410;28;20476;-68
2022/04/16 01:11:32;;;;;;;1999.90;999.90;;;6.60;99.90;;;;;;5071891;28;20477;-64
2022/04/16 01:13:59;;;;;;;1999.90;999.90;;;6.60;99.90;;;;;;5073304;28;20458;-65
2022/04/16 01:16:28;;;;;;;1999.90;999.90;;;6.60;99.90;;;;;;5073706;28;20477;-65
2022/04/16 01:18:56;;;;;;;1999.90;999.90;;;6.50;99.90;;;;;;5071991;28;20507;-65
2022/04/16 01:21:22;;;;;;;1999.90;999.90;;;6.60;99.90;;;;;;5071615;28;20476;-65
2022/04/16 01:23:50;;;;;;;1999.90;999.90;;;6.50;99.90;;;;;;5071418;28;20461;-65
2022/04/16 01:26:17;;;;;;;1999.90;999.90;;;6.60;99.90;;;;;;5089071;28;20445;-65
2022/04/16 01:28:44;;;;;;;1999.90;999.90;;;6.60;99.90;;;;;;5083081;28;20457;-65
2022/04/16 01:31:11;;;;;;;1999.90;999.90;;;6.60;99.90;;;;;;5073392;28;20560;-65
2022/04/16 01:33:38;;;;;;;1999.90;999.90;;;6.70;99.90;;;;;;5066960;28;20982;-65
2022/04/16 01:36:05;;;;;;;1999.90;999.90;;;6.70;99.90;;;;;;5076321;28;20481;-65
2022/04/16 01:38:31;;;;;;;1999.90;999.90;;;6.60;99.90;;;;;;5071645;28;20452;-65
2022/04/16 01:41:00;;;;;;;1999.90;999.90;;;6.60;99.90;;;;;;5084618;28;20474;-64
2022/04/16 01:43:26;;;;;;;1999.90;999.90;;;6.50;99.90;;;;;;5087709;28;20491;-66
2022/04/16 01:45:53;;;;;;;1999.90;999.90;;;6.50;99.90;;;;;;5083267;28;20445;-65
2022/04/16 01:48:21;;;;;;;1999.90;999.90;;;6.40;99.90;;;;;;5086484;28;20442;-64
2022/04/16 01:50:48;;;;;;;1999.90;999.90;;;6.50;99.90;;;;;;5070336;28;20480;-64
2022/04/16 01:53:15;;;;;;;1999.90;999.90;;;6.40;99.90;;;;;;5089258;28;20479;-64
2022/04/16 01:55:42;;;;;;;1999.90;999.90;;;6.40;99.90;;;;;;5080607;28;20495;-65
2022/04/16 01:58:10;;;;;;;1999.90;999.90;;;6.40;99.90;;;;;;5071120;28;20450;-65
2022/04/16 02:00:36;;;;;;;1999.90;999.90;;;6.40;99.90;;;;;;5067837;28;20496;-65
2022/04/16 02:03:03;;;;;;;1999.90;999.90;;;6.30;99.90;;;;;;5074509;28;20461;-64
2022/04/16 02:05:30;;;;;;;1999.90;999.90;;;6.30;99.90;;;;;;5071258;28;20949;-65
2022/04/16 02:07:56;;;;;;;1999.90;999.90;;;6.20;99.90;;;;;;5085664;28;20497;-64
2022/04/16 02:10:23;;;;;;;1999.90;999.90;;;6.10;99.90;;;;;;5082191;28;20519;-65
2022/04/16 02:12:50;;;;;;;1999.90;999.90;;;6.10;99.90;;;;;;5081637;28;20473;-64
2022/04/16 02:15:18;;;;;;;1999.90;999.90;;;6.10;99.90;;;;;;5081958;28;20433;-65
2022/04/16 02:17:44;;;;;;;1999.90;999.90;;;6.00;99.90;;;;;;5064647;28;20884;-62
2022/04/16 02:20:11;;;;;;;1999.90;999.90;;;5.90;99.90;;;;;;5063569;28;20434;-65
2022/04/16 02:22:42;;;;;;;1999.90;999.90;;;5.80;99.90;;;;;;5107238;28;20453;-66
2022/04/16 02:25:10;;;;;;;1999.90;999.90;;;5.60;99.90;;;;;;5106975;28;20437;-64
2022/04/16 02:27:37;;;;;;;1999.90;999.90;;;5.50;99.90;;;;;;5088376;28;21027;-64
2022/04/16 02:30:04;;;;;;;1999.90;999.90;;;5.40;99.90;;;;;;5076149;28;20454;-64
2022/04/16 02:32:35;;;;;;;1999.90;999.90;;;5.40;99.90;;;;;;5081315;28;20536;-64
2022/04/16 02:35:01;;;;;;;1999.90;999.90;;;5.30;99.90;;;;;;5055675;28;20434;-65
2022/04/16 02:37:28;;;;;;;1999.90;999.90;;;5.30;99.90;;;;;;5087698;28;21009;-67
2022/04/16 02:39:55;;;;;;;1999.90;999.90;;;5.20;99.90;;;;;;5079673;28;20454;-68
2022/04/16 02:42:22;;;;;;;1999.90;999.90;;;5.10;99.90;;;;;;5086588;28;20461;-66
2022/04/16 02:47:34;;;;;;;1999.90;999.90;;;4.80;99.90;;;;;;5071444;28;20800;-67
2022/04/16 02:50:01;;;;;;;1999.90;999.90;;;4.80;99.90;;;;;;5090582;28;20445;-67
2022/04/16 02:52:27;;;;;;;1999.90;999.90;;;4.70;99.90;;;;;;5086628;23;20498;-68
2022/04/16 02:54:54;;;;;;;1999.90;999.90;;;4.70;99.90;;;;;;5050941;28;20492;-68
2022/04/16 02:57:20;;;;;;;1999.90;999.90;;;4.60;99.90;;;;;;5048847;28;20470;-68
2022/04/16 02:59:47;;;;;;;1999.90;999.90;;;4.50;99.90;;;;;;5065782;28;20524;-68
2022/04/16 03:02:14;;;;;;;1999.90;999.90;;;4.30;99.90;;;;;;5063625;28;20469;-68
2022/04/16 03:04:42;;;;;;;1999.90;999.90;;;4.30;99.90;;;;;;5056218;28;20446;-68
2022/04/16 03:07:09;;;;;;;1999.90;999.90;;;4.20;99.90;;;;;;5062515;28;20453;-69
2022/04/16 03:09:35;;;;;;;1999.90;999.90;;;4.30;99.90;;;;;;5068161;28;20483;-68
2022/04/16 03:12:02;;;;;;;1999.90;999.90;;;4.30;99.90;;;;;;5058244;28;20528;-68
2022/04/16 03:19:58;;;;;;;1999.90;999.90;;;4.30;99.90;;;;;;5049129;28;20464;-68
2022/04/16 03:22:25;;;;;;;1999.90;999.90;;;4.40;99.90;;;;;;5049659;28;20523;-68
2022/04/16 03:24:52;;;;;;;1999.90;999.90;;;4.40;99.90;;;;;;5049814;28;20442;-69
2022/04/16 03:27:18;;;;;;;1999.90;999.90;;;4.40;99.90;;;;;;5051283;28;20450;-69
2022/04/16 03:29:45;;;;;;;1999.90;999.90;;;4.40;99.90;;;;;;5049352;28;20450;-69
2022/04/16 03:32:12;;;;;;;1999.90;999.90;;;4.40;99.90;;;;;;5049567;28;20504;-66
2022/04/16 03:34:39;;;;;;;1999.90;999.90;;;4.50;99.90;;;;;;5049981;28;20446;-69
2022/04/16 03:37:07;;;;;;;1999.90;999.90;;;4.60;99.90;;;;;;5056832;28;21013;-69
2022/04/16 03:39:34;;;;;;;1999.90;999.90;;;4.50;99.90;;;;;;5069644;28;20449;-69
2022/04/16 03:42:00;;;;;;;1999.90;999.90;;;4.60;99.90;;;;;;5051276;28;20462;-68
2022/04/16 03:44:27;;;;;;;1999.90;999.90;;;4.50;99.90;;;;;;5051475;28;20454;-68
2022/04/16 03:46:53;;;;;;;1999.90;999.90;;;4.50;99.90;;;;;;5054281;28;20491;-69
2022/04/16 03:49:20;;;;;;;1999.90;999.90;;;4.50;99.90;;;;;;5069313;28;20860;-69
2022/04/16 03:51:47;;;;;;;1999.90;999.90;;;4.30;99.90;;;;;;5067349;28;20514;-68
2022/04/16 04:00:00;;;;;;;1999.90;999.90;;;4.00;99.90;;;;;;5065615;28;20445;-69
2022/04/16 04:02:28;;;;;;;1999.90;999.90;;;4.00;99.90;;;;;;5057759;28;20475;-66
2022/04/16 04:04:55;;;;;;;1999.90;999.90;;;3.90;99.90;;;;;;5065030;28;20452;-68
2022/04/16 04:07:22;;;;;;;1999.90;999.90;;;3.70;99.90;;;;;;5056035;28;20442;-68
2022/04/16 04:09:50;;;;;;;1999.90;999.90;;;3.60;99.90;;;;;;5071202;28;20939;-68
2022/04/16 04:12:17;;;;;;;1999.90;999.90;;;3.60;99.90;;;;;;5065653;28;20470;-68
2022/04/16 04:14:45;;;;;;;1999.90;999.90;;;3.60;99.90;;;;;;5051060;28;20454;-68
2022/04/16 04:17:13;;;;;;;1999.90;999.90;;;3.60;99.90;;;;;;5054466;28;20993;-68
2022/04/16 04:19:42;;;;;;;1999.90;999.90;;;3.80;99.90;;;;;;5070916;28;21194;-68
2022/04/16 04:22:10;;;;;;;1999.90;999.90;;;3.70;99.90;;;;;;5050711;28;20470;-68
2022/04/16 04:24:38;;;;;;;1999.90;999.90;;;3.50;99.90;;;;;;5047929;28;20447;-69
2022/04/16 04:27:07;;;;;;;1999.90;999.90;;;3.60;99.90;;;;;;5046452;28;20940;-68
2022/04/16 04:29:35;;;;;;;1999.90;999.90;;;3.70;99.90;;;;;;5051912;28;20442;-69
2022/04/16 04:32:01;;;;;;;1999.90;999.90;;;3.70;99.90;;;;;;5051641;28;20836;-68
2022/04/16 04:34:28;;;;;;;1999.90;999.90;;;3.60;99.90;;;;;;5062947;28;20504;-68
2022/04/16 04:36:55;;;;;;;1999.90;999.90;;;3.60;99.90;;;;;;5054453;28;20543;-68
2022/04/16 04:39:21;;;;;;;1999.90;999.90;;;3.50;99.90;;;;;;5055553;28;20450;-68
2022/04/16 04:41:48;;;;;;;1999.90;999.90;;;3.40;99.90;;;;;;5053515;28;20516;-67
2022/04/16 04:44:16;;;;;;;1999.90;999.90;;;3.40;99.90;;;;;;5053378;28;20512;-68
2022/04/16 04:46:43;;;;;;;1999.90;999.90;;;3.40;99.90;;;;;;5054095;28;20450;-68
2022/04/16 04:49:12;;;;;;;1999.90;999.90;;;3.60;99.90;;;;;;5054787;28;20450;-68
2022/04/16 04:51:39;;;;;;;1999.90;999.90;;;3.30;99.90;;;;;;5053455;28;20485;-68
2022/04/16 04:54:07;;;;;;;1999.90;999.90;;;3.40;99.90;;;;;;5053763;28;20454;-68
2022/04/16 04:56:34;;;;;;;1999.90;999.90;;;3.40;99.90;;;;;;5054104;28;20507;-69
2022/04/16 04:59:01;;;;;;;1999.90;999.90;;;3.30;99.90;;;;;;5054628;28;20450;-69
2022/04/16 05:01:29;;;;;;;1999.90;999.90;;;3.40;99.90;;;;;;5053532;28;20443;-68
2022/04/16 05:03:55;;;;;;;1999.90;999.90;;;3.50;99.90;;;;;;5065438;28;20475;-68
2022/04/16 05:06:22;;;;;;;1999.90;999.90;;;3.70;99.90;;;;;;5063714;28;20496;-66
2022/04/16 05:08:49;;;;;;;1999.90;999.90;;;3.70;99.90;;;;;;5064041;28;20449;-68
2022/04/16 05:11:16;;;;;;;1999.90;999.90;;;3.80;99.90;;;;;;5073985;28;20449;-68
2022/04/16 05:13:42;;;;;;;1999.90;999.90;;;4.00;99.90;;;;;;5059002;28;20889;-68
2022/04/16 05:16:10;;;;;;;1999.90;999.90;;;4.10;99.90;;;;;;5053604;28;20504;-68
2022/04/16 05:18:38;;;;;;;1999.90;999.90;;;4.20;99.90;;;;;;5061045;28;20454;-68
2022/04/16 05:21:05;;;;;;;1999.90;999.90;;;4.20;99.90;;;;;;5073288;28;20512;-68
2022/04/16 05:23:31;;;;;;;1999.90;999.90;;;4.10;99.90;;;;;;5064974;28;20462;-67
2022/04/16 05:25:58;;;;;;;1999.90;999.90;;;4.10;99.90;;;;;;5070803;28;20450;-68
2022/04/16 05:28:25;;;;;;;1999.90;999.90;;;4.20;99.90;;;;;;5054147;28;20443;-68
2022/04/16 05:30:54;;;;;;;1999.90;999.90;;;4.20;99.90;;;;;;5054851;28;20793;-68
2022/04/16 05:36:03;;;;;;;1999.90;999.90;;;4.50;99.90;;;;;;5071502;28;20448;-68
2022/04/16 05:38:30;;;;;;;1999.90;999.90;;;4.50;99.90;;;;;;5070812;28;20481;-68
2022/04/16 05:40:56;;;;;;;1999.90;999.90;;;4.60;99.90;;;;;;5070708;28;20441;-69
2022/04/16 05:43:23;;;;;;;1999.90;999.90;;;4.70;99.90;;;;;;5043343;28;20475;-68
2022/04/16 05:45:50;;;;;;;1999.90;999.90;;;4.70;99.90;;;;;;5050618;28;20446;-65
2022/04/16 05:48:17;;;;;;;1999.90;999.90;;;4.80;99.90;;;;;;5044589;28;20511;-66
2022/04/16 05:50:44;;;;;;;1999.90;999.90;;;4.90;99.90;;;;;;5058603;28;20442;-67
2022/04/16 05:53:13;;;;;;;1999.90;999.90;;;5.00;99.90;;;;;;5049434;28;20470;-68
2022/04/16 05:55:41;;;;;;;1999.90;999.90;;;4.80;99.90;;;;;;5051104;28;21007;-67
2022/04/16 05:58:08;;;;;;;1999.90;999.90;;;4.80;99.90;;;;;;5045384;28;21333;-68
2022/04/16 06:00:36;;;;;;;1999.90;999.90;;;4.90;99.90;;;;;;5050208;28;20470;-69
2022/04/16 06:03:04;;;;;;;1999.90;999.90;;;4.90;99.90;;;;;;5049185;28;20475;-69
2022/04/16 06:05:32;;;;;;;1999.90;999.90;;;4.90;99.90;;;;;;5035746;28;20459;-68
2022/04/16 06:07:58;;;;;;;1999.90;999.90;;;4.90;99.90;;;;;;5052530;28;20453;-68
2022/04/16 06:10:26;;;;;;;1999.90;999.90;;;4.90;99.90;;;;;;5053165;28;20451;-69
2022/04/16 06:12:53;;;;;;;1999.90;999.90;;;5.10;99.90;;;;;;5050071;28;20531;-67
2022/04/16 06:15:20;;;;;;;1999.90;999.90;;;4.90;99.90;;;;;;5053742;28;20948;-69
2022/04/16 06:17:47;;;;;;;1999.90;999.90;;;4.90;99.90;;;;;;5047747;28;20478;-69
2022/04/16 06:20:14;;;;;;;1999.90;999.90;;;5.10;99.90;;;;;;5055468;28;20446;-69
2022/04/16 06:22:41;;;;;;;1999.90;999.90;;;5.10;99.90;;;;;;5051126;28;21068;-68
2022/04/16 06:25:09;;;;;;;1999.90;999.90;;;5.00;99.90;;;;;;5050874;28;20442;-68
2022/04/16 06:27:39;;;;;;;1999.90;999.90;;;4.90;99.90;;;;;;5052027;28;20457;-68
2022/04/16 06:30:08;;;;;;;1999.90;999.90;;;5.10;99.90;;;;;;5053353;28;20442;-68
2022/04/16 06:32:35;;;;;;;1999.90;999.90;;;5.20;99.90;;;;;;5051300;28;20474;-69
2022/04/16 06:35:05;;;;;;;1999.90;999.90;;;5.20;99.90;;;;;;5052746;28;20565;-69
2022/04/16 06:37:32;;;;;;;1999.90;999.90;;;5.20;99.90;;;;;;5052673;28;20474;-68
2022/04/16 06:39:58;;;;;;;1999.90;999.90;;;5.40;99.90;;;;;;5053693;28;20496;-69
2022/04/16 06:42:25;;;;;;;1999.90;999.90;;;5.60;99.90;;;;;;5051584;28;20470;-68
2022/04/16 06:44:53;;;;;;;1999.90;999.90;;;5.60;99.90;;;;;;5049405;28;20469;-68
2022/04/16 06:47:20;;;;;;;1999.90;999.90;;;5.50;99.90;;;;;;5050568;28;20816;-68
2022/04/16 06:49:46;;;;;;;1999.90;999.90;;;5.40;99.90;;;;;;5051856;28;20512;-68
2022/04/16 06:52:13;;;;;;;1999.90;999.90;;;5.30;99.90;;;;;;5047408;28;20490;-68
2022/04/16 06:54:42;;;;;;;1999.90;999.90;;;5.40;99.90;;;;;;5048601;28;20518;-68
2022/04/16 06:57:08;;;;;;;1999.90;999.90;;;5.40;99.90;;;;;;5046727;28;21098;-67
2022/04/16 06:59:37;;;;;;;1999.90;999.90;;;5.30;99.90;;;;;;5051316;28;20946;-68
2022/04/16 07:02:05;;;;;;;1999.90;999.90;;;5.30;99.90;;;;;;5051055;28;20470;-69
2022/04/16 07:04:32;;;;;;;1999.90;999.90;;;5.30;99.90;;;;;;5050042;28;20466;-68
2022/04/16 07:06:58;;;;;;;1999.90;999.90;;;5.30;99.90;;;;;;5052438;28;20488;-68
2022/04/16 07:09:25;;;;;;;1999.90;999.90;;;5.40;99.90;;;;;;5052046;28;20793;-68
2022/04/16 07:11:52;;;;;;;1999.90;999.90;;;5.30;99.90;;;;;;5051196;28;20466;-68
2022/04/16 07:14:18;;;;;;;1999.90;999.90;;;5.30;99.90;;;;;;5050913;28;20545;-68
2022/04/16 07:16:45;;;;;;;1999.90;999.90;;;5.50;99.90;;;;;;5053571;28;20434;-69
2022/04/16 07:19:13;;;;;;;1999.90;999.90;;;5.70;99.90;;;;;;5058419;28;20451;-69
2022/04/16 07:21:40;;;;;;;1999.90;999.90;;;5.70;99.90;;;;;;5051483;28;21014;-69
2022/04/16 07:24:06;;;;;;;1999.90;999.90;;;6.00;99.90;;;;;;5040368;28;20875;-69
2022/04/16 07:26:33;;;;;;;1999.90;999.90;;;6.00;99.90;;;;;;5051494;28;20446;-68
2022/04/16 07:29:00;;;;;;;1999.90;999.90;;;5.80;99.90;;;;;;5053507;28;20442;-69
2022/04/16 07:31:26;;;;;;;1999.90;999.90;;;5.90;99.90;;;;;;5051993;28;20501;-68
2022/04/16 07:33:53;;;;;;;1999.90;999.90;;;6.00;99.90;;;;;;5049559;28;20450;-68
2022/04/16 07:36:21;;;;;;;1999.90;999.90;;;6.00;99.90;;;;;;5069557;28;20439;-68
2022/04/16 07:38:48;;;;;;;1999.90;999.90;;;6.00;99.90;;;;;;5052997;28;20470;-69
2022/04/16 07:41:14;;;;;;;1999.90;999.90;;;6.30;99.90;;;;;;5052705;28;20500;-69
2022/04/16 07:43:41;;;;;;;1999.90;999.90;;;6.30;99.90;;;;;;5052207;28;20516;-69
2022/04/16 07:46:07;;;;;;;1999.90;999.90;;;6.70;99.90;;;;;;5054167;28;20876;-68
2022/04/16 07:48:34;;;;;;;1999.90;999.90;;;6.80;99.90;;;;;;5045621;28;20447;-70
2022/04/16 07:51:01;;;;;;;1999.90;999.90;;;7.00;99.90;;;;;;5049860;28;20458;-72
2022/04/16 07:53:30;;;;;;;1999.90;999.90;;;6.90;99.90;;;;;;5046595;28;20526;-70
2022/04/16 07:55:57;;;;;;;1999.90;999.90;;;6.80;99.90;;;;;;5055568;28;20461;-71
2022/04/16 07:58:24;;;;;;;1999.90;999.90;;;6.80;99.90;;;;;;5051182;28;20528;-71
2022/04/16 08:00:51;;;;;;;1999.90;999.90;;;7.00;99.90;;;;;;5052375;28;20458;-71
2022/04/16 08:03:17;;;;;;;1999.90;999.90;;;7.20;99.90;;;;;;5048912;28;20532;-71
2022/04/16 08:05:44;;;;;;;1999.90;999.90;;;7.50;99.90;;;;;;5049928;28;20947;-70
2022/04/16 08:08:10;;;;;;;1999.90;999.90;;;7.20;99.90;;;;;;5053284;28;20493;-71
2022/04/16 08:10:38;;;;;;;1999.90;999.90;;;7.30;99.90;;;;;;5046053;28;20504;-70
2022/04/16 08:13:07;;;;;;;1999.90;999.90;;;7.30;99.90;;;;;;5051272;28;20678;-69
2022/04/16 08:15:34;;;;;;;1999.90;999.90;;;7.60;99.90;;;;;;5050943;28;20848;-71
2022/04/16 08:18:01;;;;;;;1999.90;999.90;;;7.80;99.90;;;;;;5055045;28;21171;-68
2022/04/16 08:20:28;;;;;;;1999.90;999.90;;;7.90;99.90;;;;;;5054998;28;20496;-67
2022/04/16 08:22:55;;;;;;;1999.90;999.90;;;8.10;99.90;;;;;;5053040;28;20470;-68
2022/04/16 08:28:08;;;;;;;1999.90;999.90;;;7.70;99.90;;;;;;5036318;28;20844;-69
2022/04/16 08:30:35;;;;;;;1999.90;999.90;;;7.70;99.90;;;;;;5056054;28;20880;-69
2022/04/16 08:33:02;;;;;;;1999.90;999.90;;;7.80;99.90;;;;;;5052975;28;21932;-69
2022/04/16 08:35:29;;;;;;;1999.90;999.90;;;8.10;99.90;;;;;;5054416;28;20482;-68
2022/04/16 08:37:56;;;;;;;1999.90;999.90;;;8.60;99.90;;;;;;5054479;28;21014;-69
2022/04/16 08:40:22;;;;;;;1999.90;999.90;;;9.20;99.90;;;;;;5057932;28;20453;-69
2022/04/16 08:42:49;;;;;;;1999.90;999.90;;;9.70;99.90;;;;;;5054480;28;20516;-68
2022/04/16 08:45:18;;;;;;;1999.90;999.90;;;9.60;99.90;;;;;;5056520;28;20560;-69
2022/04/16 08:47:45;;;;;;;1999.90;999.90;;;9.20;99.90;;;;;;5056126;28;20443;-68
2022/04/16 08:50:14;;;;;;;1999.90;999.90;;;8.70;99.90;;;;;;5057314;28;20474;-68
2022/04/16 08:52:41;;;;;;;1999.90;999.90;;;8.20;99.90;;;;;;5085337;23;20537;-66
2022/04/16 08:55:10;;;;;;;1999.90;999.90;;;8.10;99.90;;;;;;5071092;28;20506;-63
2022/04/16 08:57:37;;;;;;;1999.90;999.90;;;8.20;99.90;;;;;;5073235;28;20481;-67
2022/04/16 09:00:04;;;;;;;1999.90;999.90;;;8.10;99.90;;;;;;5073990;28;20462;-66
2022/04/16 09:02:32;;;;;;;1999.90;999.90;;;8.50;99.90;;;;;;5071743;28;20866;-66
2022/04/16 09:05:04;;;;;;;1999.90;999.90;;;8.60;99.90;;;;;;5073763;28;20449;-66
2022/04/16 09:07:31;;;;;;;1999.90;999.90;;;8.50;99.90;;;;;;5072758;28;20457;-66
2022/04/16 09:10:07;;;;;;;1999.90;999.90;;;8.90;99.90;;;;;;5073782;28;20450;-65
2022/04/16 09:12:36;;;;;;;1999.90;999.90;;;9.00;99.90;;;;;;5072197;28;20552;-66
2022/04/16 09:15:06;;;;;;;1999.90;999.90;;;8.90;99.90;;;;;;5072387;28;20514;-66
2022/04/16 09:17:34;;;;;;;1999.90;999.90;;;8.80;99.90;;;;;;5068548;28;20488;-66
2022/04/16 09:20:01;;;;;;;1999.90;999.90;;;9.00;99.90;;;;;;5070710;28;20445;-67
2022/04/16 09:22:32;;;;;;;1999.90;999.90;;;9.30;99.90;;;;;;5065135;28;20470;-67
2022/04/16 09:24:58;;;;;;;1999.90;999.90;;;9.60;99.90;;;;;;5072924;28;20450;-67
2022/04/16 09:27:25;;;;;;;1999.90;999.90;;;9.50;99.90;;;;;;5072107;28;20502;-67
2022/04/16 09:29:53;;;;;;;1999.90;999.90;;;9.60;99.90;;;;;;5072610;28;20453;-70
2022/04/16 09:32:24;;;;;;;1999.90;999.90;;;9.50;99.90;;;;;;5071252;28;20470;-67
2022/04/16 09:34:52;;;;;;;1999.90;999.90;;;9.20;99.90;;;;;;5072922;28;20947;-67
2022/04/16 09:37:19;;;;;;;1999.90;999.90;;;9.00;99.90;;;;;;5073662;28;20495;-67
2022/04/16 09:39:46;;;;;;;1999.90;999.90;;;8.70;99.90;;;;;;5073244;28;20896;-67
2022/04/16 09:42:12;;;;;;;1999.90;999.90;;;8.60;99.90;;;;;;5073043;28;20472;-67
2022/04/16 09:44:39;;;;;;;1999.90;999.90;;;8.80;99.90;;;;;;5072714;28;20962;-68
2022/04/16 09:47:08;;;;;;;1999.90;999.90;;;8.70;99.90;;;;;;5072854;28;20475;-67
2022/04/16 09:49:39;;;;;;;1999.90;999.90;;;9.40;99.90;;;;;;5073384;28;20475;-67
2022/04/16 09:52:08;;;;;;;1999.90;999.90;;;9.70;99.90;;;;;;5071492;28;20445;-67
2022/04/16 09:54:35;;;;;;;1999.90;999.90;;;9.70;99.90;;;;;;5073103;28;20446;-67
2022/04/16 09:57:03;;;;;;;1999.90;999.90;;;9.80;99.90;;;;;;5071580;28;20460;-68
2022/04/16 09:59:35;;;;;;;1999.90;999.90;;;9.80;99.90;;;;;;5071311;28;20936;-68
2022/04/16 10:02:03;;;;;;;1999.90;999.90;;;9.50;99.90;;;;;;5069437;28;21281;-64
2022/04/16 10:04:30;;;;;;;1999.90;999.90;;;9.70;99.90;;;;;;5071437;28;20587;-63
2022/04/16 10:06:57;;;;;;;1999.90;999.90;;;10.00;99.90;;;;;;5071119;28;20453;-68
2022/04/16 10:09:27;;;;;;;1999.90;999.90;;;9.50;99.90;;;;;;5066977;28;20868;-67
2022/04/16 10:14:46;;;;;;;1999.90;999.90;;;8.60;99.90;;;;;;5072251;28;20506;-65
2022/04/16 10:17:26;;;;;;;1999.90;999.90;;;8.90;99.90;;;;;;5072370;28;20433;-65
2022/04/16 10:19:54;;;;;;;1999.90;999.90;;;9.20;99.90;;;;;;5072039;28;20817;-66
2022/04/16 10:22:25;;;;;;;1999.90;999.90;;;9.70;99.90;;;;;;5069872;28;20933;-67
2022/04/16 10:24:57;;;;;;;1999.90;999.90;;;10.00;99.90;;;;;;5072141;28;20525;-66
2022/04/16 10:27:24;;;;;;;1999.90;999.90;;;10.20;99.90;;;;;;5072713;28;20445;-67
2022/04/16 10:29:51;;;;;;;1999.90;999.90;;;10.30;99.90;;;;;;5071357;28;20433;-67
2022/04/16 10:32:18;;;;;;;1999.90;999.90;;;10.10;99.90;;;;;;5071437;28;20861;-67
2022/04/16 10:34:46;;;;;;;1999.90;999.90;;;10.20;99.90;;;;;;5072555;28;20445;-67
2022/04/16 10:37:37;;;;;;;1999.90;999.90;;;10.40;99.90;;;;;;5071876;28;20460;-67
2022/04/16 10:40:15;;;;;;;1999.90;999.90;;;10.00;99.90;;;;;;5070779;28;20471;-68
2022/04/16 10:42:48;;;;;;;1999.90;999.90;;;10.30;99.90;;;;;;5056602;28;20512;-67
2022/04/16 10:45:15;;;;;;;1999.90;999.90;;;10.50;99.90;;;;;;5071349;28;20958;-66
2022/04/16 10:47:43;;;;;;;1999.90;999.90;;;11.00;99.90;;;;;;5071827;28;20441;-67
2022/04/16 10:50:14;;;;;;;1999.90;999.90;;;11.30;99.90;;;;;;5072330;28;20449;-67
2022/04/16 10:52:41;;;;;;;1999.90;999.90;;;11.60;99.90;;;;;;5071163;28;20516;-67
2022/04/16 10:55:09;;;;;;;1999.90;999.90;;;11.10;99.70;;;;;;5072353;28;20499;-65
2022/04/16 10:57:36;;;;;;;1999.90;999.90;;;10.90;99.90;;;;;;5072588;28;20453;-67
2022/04/16 11:00:13;;;;;;;1999.90;999.90;;;10.80;99.90;;;;;;5067132;28;20543;-67
2022/04/16 11:02:40;;;;;;;1999.90;999.90;;;10.40;99.90;;;;;;5062487;28;20519;-67
2022/04/16 11:05:09;;;;;;;1999.90;999.90;;;10.60;99.90;;;;;;5069810;28;20449;-68
2022/04/16 11:07:37;;;;;;;1999.90;999.90;;;10.80;99.90;;;;;;5070759;28;20524;-67
2022/04/16 11:10:06;;;;;;;1999.90;999.90;;;10.80;99.90;;;;;;5071316;28;20972;-66
2022/04/16 11:12:34;;;;;;;1999.90;999.90;;;10.90;99.90;;;;;;5071454;28;20527;-67
2022/04/16 11:15:01;;;;;;;1999.90;999.90;;;11.10;99.90;;;;;;5077025;28;20976;-68
2022/04/16 11:17:28;;;;;;;1999.90;999.90;;;11.00;99.90;;;;;;5076283;28;20536;-70
2022/04/16 11:19:59;;;;;;;1999.90;999.90;;;11.00;99.90;;;;;;5071612;28;20561;-67
2022/04/16 11:22:26;;;;;;;1999.90;999.90;;;11.00;99.90;;;;;;5071609;28;20526;-65
2022/04/16 11:24:53;;;;;;;1999.90;999.90;;;11.00;99.90;;;;;;5071492;28;20445;-68
2022/04/16 11:35:54;;;;;;;1999.90;999.90;;;11.10;99.90;;;;;;5071073;28;20440;-67
2022/04/16 11:38:26;;;;;;;1999.90;999.90;;;11.40;99.90;;;;;;5071416;28;20530;-67
2022/04/16 11:40:53;;;;;;;1999.90;999.90;;;11.10;99.90;;;;;;5070733;28;20457;-67
2022/04/16 11:43:23;;;;;;;1999.90;999.90;;;11.20;99.90;;;;;;5082250;28;20503;-68
2022/04/16 11:45:51;;;;;;;1999.90;999.90;;;11.20;99.90;;;;;;5097739;28;20480;-68
2022/04/16 11:48:18;;;;;;;1999.90;999.90;;;11.00;99.90;;;;;;5099573;28;20436;-69
2022/04/16 11:50:45;;;;;;;1999.90;999.90;;;11.10;99.90;;;;;;5089227;28;20479;-68
2022/04/16 11:53:12;;;;;;;1999.90;999.90;;;11.40;99.90;;;;;;5079373;28;20469;-67
2022/04/16 11:55:45;;;;;;;1999.90;999.90;;;11.80;99.90;;;;;;5075187;28;20459;-67
2022/04/16 11:58:12;;;;;;;1999.90;999.90;;;12.10;99.90;;;;;;5075045;28;20456;-66
2022/04/16 12:00:48;;;;;;;1999.90;999.90;;;12.30;99.90;;;;;;5075052;28;20449;-67
2022/04/16 12:03:16;;;;;;;1999.90;999.90;;;12.20;99.40;;;;;;5054885;28;20465;-65
2022/04/16 12:05:43;;;;;;;1999.90;999.90;;;12.40;99.30;;;;;;5071089;28;20457;-67
2022/04/16 12:08:11;;;;;;;1999.90;999.90;;;12.20;98.40;;;;;;5074217;28;20449;-66
2022/04/16 12:10:38;;;;;;;1999.90;999.90;;;12.40;99.00;;;;;;5075659;28;20500;-66
2022/04/16 12:13:10;;;;;;;1999.90;999.90;;;12.20;99.10;;;;;;5075154;28;20465;-67
2022/04/16 12:15:41;;;;;;;1999.90;999.90;;;12.30;99.70;;;;;;5073141;28;20607;-67
2022/04/16 12:18:12;;;;;;;1999.90;999.90;;;12.40;98.40;;;;;;5074358;28;20918;-66
2022/04/16 12:20:46;;;;;;;1999.90;999.90;;;12.50;98.80;;;;;;5074865;28;21020;-66
2022/04/16 12:23:20;;;;;;;1999.90;999.90;;;12.70;97.70;;;;;;5074364;28;20514;-67
2022/04/16 12:25:47;;;;;;;1999.90;999.90;;;12.90;96.90;;;;;;5064694;28;20594;-66
2022/04/16 12:28:14;;;;;;;1999.90;999.90;;;12.90;96.90;;;;;;5074802;28;20445;-65
2022/04/16 12:30:48;;;;;;;1999.90;999.90;;;12.70;96.60;;;;;;5075631;28;20540;-65
2022/04/16 12:33:15;;;;;;;1999.90;999.90;;;12.70;96.00;;;;;;5074070;28;20977;-65
2022/04/16 12:35:46;;;;;;;1999.90;999.90;;;12.70;95.80;;;;;;5078886;28;20499;-67
2022/04/16 12:38:15;;;;;;;1999.90;999.90;;;12.80;94.80;;;;;;5074144;28;20480;-67